sensor_id;sensor_type;location;lat;lon;timestamp;pressure;altitude;pressure_sealevel;temperature;humidity
68230;BME280;55048;52.220;5.160;2023-06-05T00:00:37;102272.34;;;14.00;69.52
68230;BME280;55048;52.220;5.160;2023-06-05T00:03:03;102319.84;;;14.23;69.50
68230;BME280;55048;52.220;5.160;2023-06-05T00:05:29;102281.19;;;14.00;69.41
68230;BME280;55048;52.220;5.160;2023-06-05T00:07:54;102238.19;;;13.65;69.81
68230;BME280;55048;52.220;5.160;2023-06-05T00:10:20;102319.91;;;14.16;70.86
68230;BME280;55048;52.220;5.160;2023-06-05T00:12:46;102295.38;;;14.01;69.83
68230;BME280;55048;52.220;5.160;2023-06-05T00:15:12;102326.88;;;14.17;70.03
68230;BME280;55048;52.220;5.160;2023-06-05T00:17:37;102284.69;;;13.83;71.27
68230;BME280;55048;52.220;5.160;2023-06-05T00:20:03;102278.28;;;13.84;70.64
68230;BME280;55048;52.220;5.160;2023-06-05T00:22:29;102232.47;;;13.43;70.55
68230;BME280;55048;52.220;5.160;2023-06-05T00:24:56;102249.84;;;13.52;71.03
68230;BME280;55048;52.220;5.160;2023-06-05T00:27:22;102309.28;;;13.91;71.10
68230;BME280;55048;52.220;5.160;2023-06-05T00:29:49;102297.81;;;13.84;70.65
68230;BME280;55048;52.220;5.160;2023-06-05T00:32:15;102298.88;;;13.83;71.11
68230;BME280;55048;52.220;5.160;2023-06-05T00:34:41;102282.16;;;13.69;71.30
68230;BME280;55048;52.220;5.160;2023-06-05T00:37:06;102282.97;;;13.70;70.63
68230;BME280;55048;52.220;5.160;2023-06-05T00:39:32;102290.69;;;13.60;71.75
68230;BME280;55048;52.220;5.160;2023-06-05T00:41:58;102307.84;;;13.70;71.75
68230;BME280;55048;52.220;5.160;2023-06-05T00:44:23;102302.88;;;13.74;71.39
68230;BME280;55048;52.220;5.160;2023-06-05T00:46:51;102299.16;;;13.75;71.19
68230;BME280;55048;52.220;5.160;2023-06-05T00:49:18;102299.91;;;13.64;71.43
68230;BME280;55048;52.220;5.160;2023-06-05T00:51:45;102289.88;;;13.59;71.74
68230;BME280;55048;52.220;5.160;2023-06-05T00:54:12;102260.88;;;13.38;72.21
68230;BME280;55048;52.220;5.160;2023-06-05T00:56:40;102304.28;;;13.58;71.92
68230;BME280;55048;52.220;5.160;2023-06-05T00:59:07;102308.06;;;13.69;71.85
68230;BME280;55048;52.220;5.160;2023-06-05T01:01:33;102303.31;;;13.52;72.33
68230;BME280;55048;52.220;5.160;2023-06-05T01:04:00;102254.94;;;13.36;72.20
68230;BME280;55048;52.220;5.160;2023-06-05T01:06:28;102298.16;;;13.51;72.76
68230;BME280;55048;52.220;5.160;2023-06-05T01:08:58;102286.28;;;13.47;72.19
68230;BME280;55048;52.220;5.160;2023-06-05T01:14:15;102291.97;;;13.32;73.74
68230;BME280;55048;52.220;5.160;2023-06-05T01:16:48;102295.56;;;13.44;72.58
68230;BME280;55048;52.220;5.160;2023-06-05T01:19:16;102299.28;;;13.43;72.83
68230;BME280;55048;52.220;5.160;2023-06-05T01:21:42;102277.63;;;13.26;73.15
68230;BME280;55048;52.220;5.160;2023-06-05T01:24:08;102288.03;;;13.35;73.06
68230;BME280;55048;52.220;5.160;2023-06-05T01:26:41;102281.50;;;13.31;72.96
68230;BME280;55048;52.220;5.160;2023-06-05T01:29:11;102261.25;;;13.16;72.75
68230;BME280;55048;52.220;5.160;2023-06-05T01:31:41;102294.78;;;13.37;72.84
68230;BME280;55048;52.220;5.160;2023-06-05T01:34:09;102290.75;;;13.28;72.89
68230;BME280;55048;52.220;5.160;2023-06-05T01:36:40;102234.72;;;12.96;73.08
68230;BME280;55048;52.220;5.160;2023-06-05T01:39:06;102276.81;;;13.19;73.00
68230;BME280;55048;52.220;5.160;2023-06-05T01:41:32;102286.22;;;13.28;73.05
68230;BME280;55048;52.220;5.160;2023-06-05T01:43:59;102275.53;;;13.28;73.01
68230;BME280;55048;52.220;5.160;2023-06-05T01:46:25;102238.94;;;13.04;72.91
68230;BME280;55048;52.220;5.160;2023-06-05T01:48:51;102281.13;;;13.27;73.19
68230;BME280;55048;52.220;5.160;2023-06-05T01:51:17;102271.91;;;13.23;72.92
68230;BME280;55048;52.220;5.160;2023-06-05T01:53:43;102262.72;;;13.12;73.45
68230;BME280;55048;52.220;5.160;2023-06-05T01:56:08;102229.03;;;12.86;73.60
68230;BME280;55048;52.220;5.160;2023-06-05T01:58:34;102251.75;;;12.95;73.67
68230;BME280;55048;52.220;5.160;2023-06-05T02:01:01;102277.94;;;13.12;73.44
68230;BME280;55048;52.220;5.160;2023-06-05T02:03:28;102237.50;;;12.76;74.09
68230;BME280;55048;52.220;5.160;2023-06-05T02:05:53;102275.91;;;13.07;73.81
68230;BME280;55048;52.220;5.160;2023-06-05T02:08:20;102267.34;;;12.98;74.08
68230;BME280;55048;52.220;5.160;2023-06-05T02:10:49;102252.88;;;12.81;74.42
68230;BME280;55048;52.220;5.160;2023-06-05T02:13:14;102240.16;;;12.83;74.41
68230;BME280;55048;52.220;5.160;2023-06-05T02:15:44;102273.50;;;12.99;74.40
68230;BME280;55048;52.220;5.160;2023-06-05T02:18:10;102268.00;;;12.94;74.53
68230;BME280;55048;52.220;5.160;2023-06-05T02:20:36;102260.81;;;12.94;74.26
68230;BME280;55048;52.220;5.160;2023-06-05T02:23:02;102218.66;;;12.71;74.01
68230;BME280;55048;52.220;5.160;2023-06-05T02:25:28;102246.91;;;12.86;74.15
68230;BME280;55048;52.220;5.160;2023-06-05T02:27:54;102249.97;;;12.89;74.35
68230;BME280;55048;52.220;5.160;2023-06-05T02:30:21;102269.78;;;13.00;74.32
68230;BME280;55048;52.220;5.160;2023-06-05T02:32:47;102251.19;;;12.87;74.37
68230;BME280;55048;52.220;5.160;2023-06-05T02:35:15;102263.06;;;12.91;74.45
68230;BME280;55048;52.220;5.160;2023-06-05T02:37:41;102272.28;;;12.95;74.15
68230;BME280;55048;52.220;5.160;2023-06-05T02:40:11;102270.66;;;12.94;74.36
68230;BME280;55048;52.220;5.160;2023-06-05T02:42:37;102175.44;;;12.31;74.58
68230;BME280;55048;52.220;5.160;2023-06-05T02:45:03;102248.66;;;12.73;74.94
68230;BME280;55048;52.220;5.160;2023-06-05T02:47:30;102262.00;;;12.73;74.90
68230;BME280;55048;52.220;5.160;2023-06-05T02:49:59;102243.22;;;12.55;76.41
68230;BME280;55048;52.220;5.160;2023-06-05T02:52:25;102220.50;;;12.46;75.42
68230;BME280;55048;52.220;5.160;2023-06-05T02:54:51;102261.81;;;12.68;75.25
68230;BME280;55048;52.220;5.160;2023-06-05T02:57:17;102249.31;;;12.62;75.40
68230;BME280;55048;52.220;5.160;2023-06-05T02:59:44;102236.41;;;12.59;74.99
68230;BME280;55048;52.220;5.160;2023-06-05T03:02:12;102224.38;;;12.50;75.16
68230;BME280;55048;52.220;5.160;2023-06-05T03:04:39;102252.31;;;12.72;75.13
68230;BME280;55048;52.220;5.160;2023-06-05T03:07:06;102247.44;;;12.69;75.24
68230;BME280;55048;52.220;5.160;2023-06-05T03:09:33;102233.19;;;12.50;76.01
68230;BME280;55048;52.220;5.160;2023-06-05T03:11:59;102069.44;;;11.43;75.83
68230;BME280;55048;52.220;5.160;2023-06-05T03:14:26;102230.53;;;12.50;75.83
68230;BME280;55048;52.220;5.160;2023-06-05T03:16:56;102250.22;;;12.49;76.79
68230;BME280;55048;52.220;5.160;2023-06-05T03:19:24;102213.84;;;12.23;76.16
68230;BME280;55048;52.220;5.160;2023-06-05T03:21:50;102239.34;;;12.51;76.24
68230;BME280;55048;52.220;5.160;2023-06-05T03:24:16;102191.34;;;12.13;76.43
68230;BME280;55048;52.220;5.160;2023-06-05T03:26:46;102234.31;;;12.30;77.27
68230;BME280;55048;52.220;5.160;2023-06-05T03:29:12;102236.41;;;12.28;77.18
68230;BME280;55048;52.220;5.160;2023-06-05T03:31:38;102226.53;;;12.28;76.57
68230;BME280;55048;52.220;5.160;2023-06-05T03:34:04;102225.66;;;12.41;76.63
68230;BME280;55048;52.220;5.160;2023-06-05T03:36:32;102239.16;;;12.46;76.46
68230;BME280;55048;52.220;5.160;2023-06-05T03:39:03;102206.84;;;12.29;76.12
68230;BME280;55048;52.220;5.160;2023-06-05T03:41:28;102223.63;;;12.36;76.34
68230;BME280;55048;52.220;5.160;2023-06-05T03:43:54;102186.78;;;12.20;76.31
68230;BME280;55048;52.220;5.160;2023-06-05T03:46:22;102236.44;;;12.52;76.33
68230;BME280;55048;52.220;5.160;2023-06-05T03:48:49;102211.75;;;12.32;76.54
68230;BME280;55048;52.220;5.160;2023-06-05T03:51:16;102241.78;;;12.52;76.25
68230;BME280;55048;52.220;5.160;2023-06-05T03:53:45;102246.56;;;12.44;76.97
68230;BME280;55048;52.220;5.160;2023-06-05T03:56:11;102233.72;;;12.28;77.00
68230;BME280;55048;52.220;5.160;2023-06-05T03:58:41;102257.28;;;12.31;77.91
68230;BME280;55048;52.220;5.160;2023-06-05T04:01:07;102225.78;;;12.14;77.59
68230;BME280;55048;52.220;5.160;2023-06-05T04:03:33;102221.09;;;12.10;77.59
68230;BME280;55048;52.220;5.160;2023-06-05T04:06:03;102237.16;;;12.35;77.38
68230;BME280;55048;52.220;5.160;2023-06-05T04:08:29;102235.28;;;12.42;77.00
68230;BME280;55048;52.220;5.160;2023-06-05T04:10:54;102244.69;;;12.44;77.45
68230;BME280;55048;52.220;5.160;2023-06-05T04:13:20;102204.63;;;12.19;77.12
68230;BME280;55048;52.220;5.160;2023-06-05T04:15:47;102235.94;;;12.37;77.17
68230;BME280;55048;52.220;5.160;2023-06-05T04:18:14;102248.63;;;12.42;76.94
68230;BME280;55048;52.220;5.160;2023-06-05T04:20:40;102242.25;;;12.43;76.82
68230;BME280;55048;52.220;5.160;2023-06-05T04:23:07;102253.91;;;12.55;76.97
68230;BME280;55048;52.220;5.160;2023-06-05T04:25:35;102239.59;;;12.43;76.93
68230;BME280;55048;52.220;5.160;2023-06-05T04:28:01;102224.63;;;12.42;76.98
68230;BME280;55048;52.220;5.160;2023-06-05T04:30:26;102235.28;;;12.42;76.91
68230;BME280;55048;52.220;5.160;2023-06-05T04:32:52;102244.50;;;12.46;76.78
68230;BME280;55048;52.220;5.160;2023-06-05T04:35:22;102269.63;;;12.63;77.27
68230;BME280;55048;52.220;5.160;2023-06-05T04:37:48;102237.91;;;12.48;76.61
68230;BME280;55048;52.220;5.160;2023-06-05T04:40:16;102259.56;;;12.65;76.63
68230;BME280;55048;52.220;5.160;2023-06-05T04:42:42;102242.56;;;12.60;76.94
68230;BME280;55048;52.220;5.160;2023-06-05T04:45:08;102276.75;;;12.76;76.75
68230;BME280;55048;52.220;5.160;2023-06-05T04:47:37;102247.84;;;12.66;76.61
68230;BME280;55048;52.220;5.160;2023-06-05T04:50:04;102275.75;;;12.70;77.50
68230;BME280;55048;52.220;5.160;2023-06-05T04:52:34;102282.72;;;12.71;77.53
68230;BME280;55048;52.220;5.160;2023-06-05T04:55:06;102258.75;;;12.65;77.46
68230;BME280;55048;52.220;5.160;2023-06-05T04:57:32;102256.34;;;12.57;77.96
68230;BME280;55048;52.220;5.160;2023-06-05T05:00:00;102269.56;;;12.76;77.39
68230;BME280;55048;52.220;5.160;2023-06-05T05:02:30;102274.00;;;12.89;76.92
68230;BME280;55048;52.220;5.160;2023-06-05T05:04:55;102276.25;;;12.86;77.29
68230;BME280;55048;52.220;5.160;2023-06-05T05:07:21;102187.75;;;12.25;77.44
68230;BME280;55048;52.220;5.160;2023-06-05T05:09:48;102281.13;;;12.95;77.41
68230;BME280;55048;52.220;5.160;2023-06-05T05:12:14;102247.72;;;12.86;77.00
68230;BME280;55048;52.220;5.160;2023-06-05T05:14:39;102279.63;;;13.06;77.00
68230;BME280;55048;52.220;5.160;2023-06-05T05:17:05;102277.94;;;13.12;76.92
68230;BME280;55048;52.220;5.160;2023-06-05T05:19:32;102274.47;;;13.05;76.97
68230;BME280;55048;52.220;5.160;2023-06-05T05:22:00;102259.09;;;13.00;76.29
68230;BME280;55048;52.220;5.160;2023-06-05T05:24:25;102286.69;;;13.19;76.27
68230;BME280;55048;52.220;5.160;2023-06-05T05:26:51;102290.47;;;13.11;75.85
68230;BME280;55048;52.220;5.160;2023-06-05T05:29:17;102282.78;;;13.21;75.50
68230;BME280;55048;52.220;5.160;2023-06-05T05:31:43;102276.19;;;13.24;75.11
68230;BME280;55048;52.220;5.160;2023-06-05T05:34:09;102290.34;;;13.31;75.38
68230;BME280;55048;52.220;5.160;2023-06-05T05:36:35;102269.03;;;13.18;75.09
68230;BME280;55048;52.220;5.160;2023-06-05T05:39:02;102264.50;;;13.18;75.08
68230;BME280;55048;52.220;5.160;2023-06-05T05:41:28;102253.44;;;13.15;75.09
68230;BME280;55048;52.220;5.160;2023-06-05T05:43:53;102256.91;;;13.22;74.91
68230;BME280;55048;52.220;5.160;2023-06-05T05:46:18;102263.91;;;13.41;74.54
68230;BME280;55048;52.220;5.160;2023-06-05T05:48:44;102269.50;;;13.40;74.52
68230;BME280;55048;52.220;5.160;2023-06-05T05:51:09;102263.34;;;13.39;74.47
68230;BME280;55048;52.220;5.160;2023-06-05T05:53:35;102284.09;;;13.37;74.51
68230;BME280;55048;52.220;5.160;2023-06-05T05:56:01;102287.09;;;13.47;74.39
68230;BME280;55048;52.220;5.160;2023-06-05T05:58:26;102262.56;;;13.57;74.37
68230;BME280;55048;52.220;5.160;2023-06-05T06:00:53;102280.09;;;13.90;73.55
68230;BME280;55048;52.220;5.160;2023-06-05T06:03:20;102272.03;;;14.08;72.77
68230;BME280;55048;52.220;5.160;2023-06-05T06:05:46;102258.19;;;14.29;71.60
68230;BME280;55048;52.220;5.160;2023-06-05T06:08:11;102269.91;;;14.77;71.08
68230;BME280;55048;52.220;5.160;2023-06-05T06:10:37;102254.91;;;14.88;69.20
68230;BME280;55048;52.220;5.160;2023-06-05T06:13:03;102283.25;;;15.19;68.86
68230;BME280;55048;52.220;5.160;2023-06-05T06:15:32;102290.97;;;15.50;68.03
68230;BME280;55048;52.220;5.160;2023-06-05T06:17:57;102288.50;;;15.61;67.24
68230;BME280;55048;52.220;5.160;2023-06-05T06:20:25;102261.94;;;15.36;66.55
68230;BME280;55048;52.220;5.160;2023-06-05T06:22:50;102284.31;;;15.53;66.43
68230;BME280;55048;52.220;5.160;2023-06-05T06:25:16;102268.56;;;15.56;65.86
68230;BME280;55048;52.220;5.160;2023-06-05T06:27:43;102260.41;;;15.75;65.71
68230;BME280;55048;52.220;5.160;2023-06-05T06:30:11;102292.25;;;15.83;65.10
68230;BME280;55048;52.220;5.160;2023-06-05T06:32:37;102276.41;;;15.70;65.35
68230;BME280;55048;52.220;5.160;2023-06-05T06:35:03;102277.22;;;15.70;64.62
68230;BME280;55048;52.220;5.160;2023-06-05T06:37:28;102292.25;;;15.83;64.52
68230;BME280;55048;52.220;5.160;2023-06-05T06:39:54;102289.66;;;15.88;64.25
68230;BME280;55048;52.220;5.160;2023-06-05T06:42:20;102289.84;;;16.10;63.82
68230;BME280;55048;52.220;5.160;2023-06-05T06:44:58;102275.75;;;16.31;63.24
68230;BME280;55048;52.220;5.160;2023-06-05T06:47:24;102283.59;;;16.62;62.65
68230;BME280;55048;52.220;5.160;2023-06-05T06:49:50;102282.34;;;16.69;62.36
68230;BME280;55048;52.220;5.160;2023-06-05T06:52:16;102253.00;;;16.34;61.51
68230;BME280;55048;52.220;5.160;2023-06-05T06:54:44;102297.56;;;16.64;61.99
68230;BME280;55048;52.220;5.160;2023-06-05T06:57:09;102293.66;;;16.54;61.56
68230;BME280;55048;52.220;5.160;2023-06-05T06:59:34;102274.94;;;16.31;61.63
68230;BME280;55048;52.220;5.160;2023-06-05T07:02:20;102281.47;;;16.35;61.75
68230;BME280;55048;52.220;5.160;2023-06-05T07:04:46;102294.88;;;16.64;61.42
68230;BME280;55048;52.220;5.160;2023-06-05T07:07:13;102294.63;;;16.77;61.07
68230;BME280;55048;52.220;5.160;2023-06-05T07:09:44;102291.47;;;16.68;60.67
68230;BME280;55048;52.220;5.160;2023-06-05T07:12:11;102306.28;;;16.82;60.74
68230;BME280;55048;52.220;5.160;2023-06-05T07:14:37;102295.53;;;16.82;60.23
68230;BME280;55048;52.220;5.160;2023-06-05T07:17:03;102284.28;;;16.86;60.26
68230;BME280;55048;52.220;5.160;2023-06-05T07:19:33;102285.91;;;16.87;60.19
68230;BME280;55048;52.220;5.160;2023-06-05T07:22:00;102268.94;;;16.98;59.78
68230;BME280;55048;52.220;5.160;2023-06-05T07:24:27;102300.09;;;17.32;59.21
68230;BME280;55048;52.220;5.160;2023-06-05T07:26:54;102306.50;;;17.48;58.75
68230;BME280;55048;52.220;5.160;2023-06-05T07:29:21;102303.41;;;17.56;58.63
68230;BME280;55048;52.220;5.160;2023-06-05T07:31:47;102264.81;;;17.46;58.65
68230;BME280;55048;52.220;5.160;2023-06-05T07:34:14;102300.84;;;17.67;58.49
68230;BME280;55048;52.220;5.160;2023-06-05T07:36:40;102295.28;;;17.51;58.43
68230;BME280;55048;52.220;5.160;2023-06-05T07:39:05;102263.72;;;17.64;58.03
68230;BME280;55048;52.220;5.160;2023-06-05T07:41:31;102261.50;;;17.77;57.62
68230;BME280;55048;52.220;5.160;2023-06-05T07:43:57;102285.97;;;17.98;57.63
68230;BME280;55048;52.220;5.160;2023-06-05T07:46:22;102275.13;;;17.93;57.43
68230;BME280;55048;52.220;5.160;2023-06-05T07:48:47;102279.75;;;18.19;57.44
68230;BME280;55048;52.220;5.160;2023-06-05T07:51:13;102294.97;;;18.30;56.77
68230;BME280;55048;52.220;5.160;2023-06-05T07:53:38;102283.00;;;18.21;56.76
68230;BME280;55048;52.220;5.160;2023-06-05T07:56:05;102287.13;;;18.29;56.52
68230;BME280;55048;52.220;5.160;2023-06-05T07:58:30;102295.50;;;18.32;56.61
68230;BME280;55048;52.220;5.160;2023-06-05T08:00:57;102255.72;;;18.13;55.75
68230;BME280;55048;52.220;5.160;2023-06-05T08:03:24;102287.34;;;18.49;55.95
68230;BME280;55048;52.220;5.160;2023-06-05T08:05:50;102274.59;;;18.40;55.67
68230;BME280;55048;52.220;5.160;2023-06-05T08:08:16;102292.19;;;18.74;55.25
68230;BME280;55048;52.220;5.160;2023-06-05T08:10:42;102290.47;;;18.90;55.18
68230;BME280;55048;52.220;5.160;2023-06-05T08:13:08;102286.66;;;18.86;54.39
68230;BME280;55048;52.220;5.160;2023-06-05T08:15:34;102309.31;;;18.90;54.38
68230;BME280;55048;52.220;5.160;2023-06-05T08:17:59;102285.91;;;18.96;54.46
68230;BME280;55048;52.220;5.160;2023-06-05T08:20:25;102297.94;;;19.15;54.26
68230;BME280;55048;52.220;5.160;2023-06-05T08:22:50;102286.72;;;19.33;53.98
68230;BME280;55048;52.220;5.160;2023-06-05T08:25:16;102283.47;;;19.26;53.57
68230;BME280;55048;52.220;5.160;2023-06-05T08:27:41;102257.22;;;19.17;53.54
68230;BME280;55048;52.220;5.160;2023-06-05T08:30:07;102268.91;;;19.27;53.29
68230;BME280;55048;52.220;5.160;2023-06-05T08:32:33;102279.75;;;19.37;53.20
68230;BME280;55048;52.220;5.160;2023-06-05T08:34:58;102276.56;;;19.46;53.13
68230;BME280;55048;52.220;5.160;2023-06-05T08:37:26;102250.13;;;19.48;52.48
68230;BME280;55048;52.220;5.160;2023-06-05T08:39:53;102252.03;;;19.52;52.26
68230;BME280;55048;52.220;5.160;2023-06-05T08:42:19;102245.59;;;19.58;51.57
68230;BME280;55048;52.220;5.160;2023-06-05T08:44:48;102277.91;;;19.96;52.02
68230;BME280;55048;52.220;5.160;2023-06-05T08:47:15;102281.41;;;19.91;51.31
68230;BME280;55048;52.220;5.160;2023-06-05T08:49:41;102231.97;;;19.85;51.08
68230;BME280;55048;52.220;5.160;2023-06-05T08:52:07;102278.28;;;20.20;51.09
68230;BME280;55048;52.220;5.160;2023-06-05T08:54:37;102244.16;;;19.98;50.58
68230;BME280;55048;52.220;5.160;2023-06-05T08:57:03;102223.03;;;19.80;51.32
68230;BME280;55048;52.220;5.160;2023-06-05T08:59:29;102277.72;;;20.23;50.94
68230;BME280;55048;52.220;5.160;2023-06-05T09:01:56;102237.66;;;19.94;50.61
68230;BME280;55048;52.220;5.160;2023-06-05T09:04:21;102264.44;;;20.06;51.01
68230;BME280;55048;52.220;5.160;2023-06-05T09:06:48;102260.69;;;20.12;51.07
68230;BME280;55048;52.220;5.160;2023-06-05T09:09:17;102253.13;;;20.14;51.01
68230;BME280;55048;52.220;5.160;2023-06-05T09:11:43;102272.38;;;20.43;50.26
68230;BME280;55048;52.220;5.160;2023-06-05T09:14:09;102255.88;;;20.39;50.27
68230;BME280;55048;52.220;5.160;2023-06-05T09:16:35;102272.44;;;20.74;49.91
68230;BME280;55048;52.220;5.160;2023-06-05T09:19:01;102270.00;;;20.62;49.81
68230;BME280;55048;52.220;5.160;2023-06-05T09:21:27;102259.19;;;20.62;49.87
68230;BME280;55048;52.220;5.160;2023-06-05T09:24:18;102277.03;;;20.63;49.93
68230;BME280;55048;52.220;5.160;2023-06-05T09:31:57;102267.56;;;21.06;49.36
68230;BME280;55048;52.220;5.160;2023-06-05T09:34:34;102240.25;;;20.98;48.98
68230;BME280;55048;52.220;5.160;2023-06-05T09:37:05;102242.94;;;20.98;48.58
68230;BME280;55048;52.220;5.160;2023-06-05T09:39:32;102235.66;;;21.08;48.70
68230;BME280;55048;52.220;5.160;2023-06-05T09:41:59;102227.50;;;21.19;48.22
68230;BME280;55048;52.220;5.160;2023-06-05T09:44:26;102266.72;;;21.16;48.83
68230;BME280;55048;52.220;5.160;2023-06-05T09:46:58;102250.75;;;21.20;48.89
68230;BME280;55048;52.220;5.160;2023-06-05T09:51:51;102261.06;;;21.33;48.59
68230;BME280;55048;52.220;5.160;2023-06-05T09:54:19;102247.78;;;21.21;49.38
68230;BME280;55048;52.220;5.160;2023-06-05T09:56:47;102252.13;;;21.02;50.03
68230;BME280;55048;52.220;5.160;2023-06-05T09:59:20;102241.88;;;21.04;49.44
68230;BME280;55048;52.220;5.160;2023-06-05T10:01:48;102239.41;;;21.23;49.04
68230;BME280;55048;52.220;5.160;2023-06-05T10:04:15;102232.38;;;21.27;48.92
68230;BME280;55048;52.220;5.160;2023-06-05T10:06:42;102209.38;;;21.14;49.42
68230;BME280;55048;52.220;5.160;2023-06-05T10:09:08;102230.19;;;21.24;49.25
68230;BME280;55048;52.220;5.160;2023-06-05T10:11:35;102232.63;;;21.41;49.04
68230;BME280;55048;52.220;5.160;2023-06-05T10:14:00;102233.47;;;21.36;48.97
68230;BME280;55048;52.220;5.160;2023-06-05T10:16:28;102237.22;;;21.40;49.17
68230;BME280;55048;52.220;5.160;2023-06-05T10:18:55;102239.41;;;21.38;49.26
68230;BME280;55048;52.220;5.160;2023-06-05T10:21:25;102243.69;;;21.49;48.87
68230;BME280;55048;52.220;5.160;2023-06-05T10:24:04;102248.31;;;21.38;49.23
68230;BME280;55048;52.220;5.160;2023-06-05T10:29:33;102236.44;;;21.19;50.09
68230;BME280;55048;52.220;5.160;2023-06-05T10:32:12;102239.09;;;21.29;50.06
68230;BME280;55048;52.220;5.160;2023-06-05T10:40:19;102228.84;;;21.42;48.94
68230;BME280;55048;52.220;5.160;2023-06-05T10:42:45;102235.81;;;21.53;49.20
68230;BME280;55048;52.220;5.160;2023-06-05T10:45:11;102193.13;;;21.24;48.66
68230;BME280;55048;52.220;5.160;2023-06-05T10:52:49;102223.97;;;21.38;48.78
68230;BME280;55048;52.220;5.160;2023-06-05T10:55:16;102231.69;;;21.71;48.44
68230;BME280;55048;52.220;5.160;2023-06-05T11:00:26;102231.19;;;21.58;48.26
68230;BME280;55048;52.220;5.160;2023-06-05T11:02:51;102194.09;;;21.59;47.96
68230;BME280;55048;52.220;5.160;2023-06-05T11:05:18;102225.16;;;21.77;47.99
68230;BME280;55048;52.220;5.160;2023-06-05T11:07:44;102218.19;;;21.65;48.30
68230;BME280;55048;52.220;5.160;2023-06-05T11:10:18;102228.19;;;21.70;47.69
68230;BME280;55048;52.220;5.160;2023-06-05T11:17:38;102229.59;;;21.52;48.09
68230;BME280;55048;52.220;5.160;2023-06-05T11:20:04;102220.66;;;21.57;48.26
68230;BME280;55048;52.220;5.160;2023-06-05T11:28:05;102224.75;;;21.54;48.36
68230;BME280;55048;52.220;5.160;2023-06-05T11:30:37;102221.38;;;21.83;47.91
68230;BME280;55048;52.220;5.160;2023-06-05T11:33:08;102217.19;;;22.06;47.75
68230;BME280;55048;52.220;5.160;2023-06-05T11:35:35;102210.66;;;22.12;47.66
68230;BME280;55048;52.220;5.160;2023-06-05T11:38:12;102204.03;;;21.84;48.09
68230;BME280;55048;52.220;5.160;2023-06-05T11:40:38;102186.88;;;21.99;47.62
68230;BME280;55048;52.220;5.160;2023-06-05T11:43:09;102182.81;;;22.01;48.14
68230;BME280;55048;52.220;5.160;2023-06-05T11:45:37;102224.59;;;22.34;46.50
68230;BME280;55048;52.220;5.160;2023-06-05T11:48:12;102210.25;;;22.29;46.81
68230;BME280;55048;52.220;5.160;2023-06-05T11:50:58;102208.78;;;22.02;47.51
68230;BME280;55048;52.220;5.160;2023-06-05T11:53:26;102210.88;;;22.21;47.17
68230;BME280;55048;52.220;5.160;2023-06-05T11:55:52;102219.59;;;22.07;47.37
68230;BME280;55048;52.220;5.160;2023-06-05T11:58:26;102213.63;;;22.15;47.62
68230;BME280;55048;52.220;5.160;2023-06-05T12:00:52;102209.53;;;22.18;47.64
68230;BME280;55048;52.220;5.160;2023-06-05T12:03:28;102214.69;;;22.20;47.50
68230;BME280;55048;52.220;5.160;2023-06-05T12:05:53;102192.59;;;21.92;47.52
68230;BME280;55048;52.220;5.160;2023-06-05T12:08:29;102206.75;;;22.28;47.49
68230;BME280;55048;52.220;5.160;2023-06-05T12:10:57;102214.88;;;22.28;47.19
68230;BME280;55048;52.220;5.160;2023-06-05T12:13:50;102202.72;;;22.26;47.19
68230;BME280;55048;52.220;5.160;2023-06-05T12:16:19;102199.78;;;22.17;47.25
68230;BME280;55048;52.220;5.160;2023-06-05T12:18:46;102197.38;;;22.15;47.40
68230;BME280;55048;52.220;5.160;2023-06-05T12:21:25;102203.09;;;22.04;47.29
68230;BME280;55048;52.220;5.160;2023-06-05T12:23:51;102194.97;;;22.04;47.50
68230;BME280;55048;52.220;5.160;2023-06-05T12:26:17;102206.03;;;22.12;47.38
68230;BME280;55048;52.220;5.160;2023-06-05T12:28:44;102174.53;;;21.82;48.05
68230;BME280;55048;52.220;5.160;2023-06-05T12:31:32;102195.50;;;22.06;47.75
68230;BME280;55048;52.220;5.160;2023-06-05T12:33:58;102179.53;;;21.99;47.40
68230;BME280;55048;52.220;5.160;2023-06-05T12:36:23;102176.53;;;22.06;46.95
68230;BME280;55048;52.220;5.160;2023-06-05T12:38:49;102186.50;;;22.21;47.13
68230;BME280;55048;52.220;5.160;2023-06-05T12:41:14;102163.22;;;22.09;46.77
68230;BME280;55048;52.220;5.160;2023-06-05T12:43:40;102189.47;;;22.19;46.75
68230;BME280;55048;52.220;5.160;2023-06-05T12:46:06;102191.91;;;22.21;46.94
68230;BME280;55048;52.220;5.160;2023-06-05T12:48:33;102179.94;;;22.27;47.05
68230;BME280;55048;52.220;5.160;2023-06-05T12:50:58;102169.44;;;22.20;47.04
68230;BME280;55048;52.220;5.160;2023-06-05T12:53:26;102174.19;;;22.33;46.29
68230;BME280;55048;52.220;5.160;2023-06-05T12:55:52;102173.16;;;22.29;46.32
68230;BME280;55048;52.220;5.160;2023-06-05T12:58:17;102147.72;;;22.25;46.20
68230;BME280;55048;52.220;5.160;2023-06-05T13:00:43;102175.72;;;22.45;46.18
68230;BME280;55048;52.220;5.160;2023-06-05T13:03:09;102168.63;;;22.20;47.15
68230;BME280;55048;52.220;5.160;2023-06-05T13:05:35;102182.50;;;22.42;47.05
68230;BME280;55048;52.220;5.160;2023-06-05T13:08:01;102174.88;;;22.49;46.26
68230;BME280;55048;52.220;5.160;2023-06-05T13:10:26;102181.50;;;22.67;46.07
68230;BME280;55048;52.220;5.160;2023-06-05T13:12:51;102177.78;;;22.58;46.61
68230;BME280;55048;52.220;5.160;2023-06-05T13:15:17;102180.66;;;22.72;46.37
68230;BME280;55048;52.220;5.160;2023-06-05T13:17:42;102136.25;;;22.62;46.14
68230;BME280;55048;52.220;5.160;2023-06-05T13:20:08;102171.72;;;23.00;45.50
68230;BME280;55048;52.220;5.160;2023-06-05T13:22:36;102168.28;;;22.89;45.96
68230;BME280;55048;52.220;5.160;2023-06-05T13:25:01;102155.50;;;22.61;46.39
68230;BME280;55048;52.220;5.160;2023-06-05T13:27:27;102158.28;;;22.85;46.63